| time (UTC) | temp F | wind direction | speed MPH | gust MPH | rain 1hr in | rain 24hr in | rain mn in | humidity % | barometer mb |
| 20260510194511 | 69 | 200 | 3.0 | 5.0 | 0.00 | 0.00 | 0.00 | 62 | 1009.5 |
| 20260510193013 | 69 | 49 | 1.0 | 4.0 | 0.00 | 0.00 | 0.00 | 60 | 1009.4 |
| 20260510191512 | 69 | 84 | 1.0 | 6.0 | 0.00 | 0.00 | 0.00 | 60 | 1009.4 |
| 20260510190011 | 71 | 291 | 4.0 | 14.0 | 0.00 | 0.00 | 0.00 | 58 | 1009.2 |
| 20260510184510 | 71 | 195 | 11.0 | 21.0 | 0.00 | 0.00 | 0.00 | 55 | 1008.8 |
| 20260510183010 | 72 | 231 | 10.0 | 22.0 | 0.00 | 0.00 | 0.00 | 53 | 1008.8 |
| 20260510181520 | 73 | 232 | 13.0 | 27.0 | 0.00 | 0.00 | 0.00 | 52 | 1008.7 |
| 20260510180009 | 73 | 207 | 16.0 | 28.0 | 0.00 | 0.00 | 0.00 | 51 | 1008.8 |
| 20260510174508 | 74 | 232 | 14.0 | 28.0 | 0.00 | 0.00 | 0.00 | 51 | 1008.7 |
| 20260510173007 | 74 | 224 | 15.0 | 28.0 | 0.00 | 0.00 | 0.00 | 49 | 1008.7 |
| 20260510171510 | 75 | 190 | 9.0 | 24.0 | 0.00 | 0.00 | 0.00 | 51 | 1008.6 |
| 20260510170006 | 75 | 205 | 16.0 | 28.0 | 0.00 | 0.00 | 0.00 | 51 | 1008.5 |
| 20260510164503 | 75 | 205 | 17.0 | 24.0 | 0.00 | 0.00 | 0.00 | 50 | 1008.6 |
| 20260510163002 | 76 | 210 | 14.0 | 23.0 | 0.00 | 0.00 | 0.00 | 49 | 1008.6 |
| 20260510161600 | 77 | 222 | 16.0 | 27.0 | 0.00 | 0.00 | 0.00 | 48 | 1008.7 |
| 20260510160104 | 77 | 196 | 16.0 | 25.0 | 0.00 | 0.00 | 0.00 | 47 | 1008.7 |
| 20260510154602 | 77 | 186 | 17.0 | 27.0 | 0.00 | 0.00 | 0.00 | 47 | 1008.8 |
| 20260510153105 | 77 | 206 | 16.0 | 25.0 | 0.00 | 0.00 | 0.00 | 47 | 1008.8 |
| 20260510151554 | 77 | 216 | 18.0 | 29.0 | 0.00 | 0.00 | 0.00 | 46 | 1009.0 |
| 20260510150055 | 77 | 231 | 15.0 | 25.0 | 0.00 | 0.00 | 0.00 | 47 | 1009.2 |
| 20260510144552 | 78 | 213 | 13.0 | 25.0 | 0.00 | 0.00 | 0.00 | 48 | 1009.4 |
| 20260510143101 | 78 | 234 | 14.0 | 25.0 | 0.00 | 0.00 | 0.00 | 47 | 1009.5 |
| 20260510141552 | 78 | 221 | 15.0 | 22.0 | 0.00 | 0.00 | 0.00 | 47 | 1009.5 |
| 20260510140046 | 79 | 219 | 12.0 | 28.0 | 0.00 | 0.00 | 0.00 | 48 | 1009.8 |
| 20260510134545 | 78 | 233 | 17.0 | 28.0 | 0.00 | 0.00 | 0.00 | 48 | 1010.0 |
| 20260510133042 | 78 | 234 | 12.0 | 32.0 | 0.00 | 0.00 | 0.00 | 51 | 1010.0 |
| 20260510131539 | 78 | 222 | 15.0 | 26.0 | 0.00 | 0.00 | 0.00 | 51 | 1010.1 |
| 20260510130041 | 78 | 191 | 17.0 | 27.0 | 0.00 | 0.01 | 0.00 | 51 | 1010.1 |
| 20260510124536 | 78 | 236 | 13.0 | 24.0 | 0.00 | 0.01 | 0.00 | 53 | 1010.5 |
| 20260510123036 | 77 | 211 | 13.0 | 21.0 | 0.00 | 0.01 | 0.00 | 53 | 1010.7 |
| 20260510121529 | 74 | 185 | 10.0 | 22.0 | 0.00 | 0.01 | 0.00 | 68 | 1011.0 |
| 20260510120027 | 74 | 160 | 11.0 | 20.0 | 0.00 | 0.01 | 0.00 | 68 | 1011.3 |
| 20260510114529 | 74 | 185 | 14.0 | 25.0 | 0.00 | 0.01 | 0.00 | 70 | 1011.5 |
| 20260510113023 | 74 | 165 | 13.0 | 18.0 | 0.00 | 0.01 | 0.00 | 66 | 1011.6 |
| 20260510111520 | 75 | 209 | 10.0 | 19.0 | 0.00 | 0.01 | 0.00 | 66 | 1011.9 |
| 20260510110019 | 72 | 123 | 10.0 | 16.0 | 0.00 | 0.02 | 0.00 | 70 | 1012.0 |
| 20260510104517 | 73 | 181 | 14.0 | 19.0 | 0.00 | 0.02 | 0.00 | 64 | 1012.2 |
| 20260510103014 | 74 | 188 | 7.0 | 11.0 | 0.00 | 0.02 | 0.00 | 61 | 1012.1 |
| 20260510101515 | 72 | 137 | 4.0 | 10.0 | 0.00 | 0.02 | 0.00 | 68 | 1012.1 |
| 20260510100007 | 71 | 71 | 5.0 | 11.0 | 0.00 | 0.12 | 0.00 | 69 | 1012.2 |
| 20260510094504 | 70 | 121 | 4.0 | 8.0 | 0.00 | 0.12 | 0.00 | 70 | 1012.3 |
| 20260510093102 | 70 | 80 | 4.0 | 8.0 | 0.00 | 0.12 | 0.00 | 70 | 1012.6 |
| 20260510091557 | 69 | 92 | 2.0 | 7.0 | 0.00 | 0.12 | 0.00 | 72 | 1012.7 |
| 20260510090051 | 68 | 98 | 0.0 | 7.0 | 0.00 | 0.18 | 0.00 | 73 | 1012.5 |
| 20260510084546 | 67 | 82 | 2.0 | 6.0 | 0.00 | 0.18 | 0.00 | 76 | 1012.8 |
| 20260510083049 | 66 | 128 | 1.0 | 4.0 | 0.00 | 0.18 | 0.00 | 77 | 1012.9 |
| 20260510081544 | 65 | 178 | 1.0 | 4.0 | 0.00 | 0.18 | 0.00 | 79 | 1012.6 |
| 20260510080037 | 64 | 84 | 1.0 | 4.0 | 0.00 | 0.23 | 0.00 | 81 | 1012.8 |
| 20260510074532 | 63 | 235 | 1.0 | 5.0 | 0.00 | 0.23 | 0.00 | 83 | 1013.0 |
| 20260510073028 | 62 | 300 | 1.0 | 5.0 | 0.00 | 0.23 | 0.00 | 89 | 1013.1 |
| 20260510071535 | 60 | 284 | 2.0 | 8.0 | 0.00 | 0.23 | 0.00 | 91 | 1013.2 |
| 20260510070021 | 59 | 281 | 3.0 | 6.0 | 0.00 | 0.31 | 0.00 | 93 | 1013.0 |
| 20260510064518 | 58 | 321 | 1.0 | 3.0 | 0.00 | 0.31 | 0.00 | 94 | 1012.9 |
| 20260510063020 | 56 | 321 | 2.0 | 3.0 | 0.00 | 0.31 | 0.00 | 94 | 1012.8 |
| 20260510061528 | 57 | 317 | 1.0 | 4.0 | 0.00 | 0.31 | 0.00 | 94 | 1012.9 |
| 20260510060012 | 56 | 201 | 1.0 | 3.0 | 0.00 | 0.36 | 0.00 | 95 | 1012.7 |
| 20260510054510 | 55 | 200 | 1.0 | 2.0 | 0.00 | 0.36 | 0.00 | 95 | 1012.6 |
| 20260510053005 | 54 | 200 | 2.0 | 5.0 | 0.00 | 0.36 | 0.00 | 95 | 1012.5 |
| 20260510051504 | 53 | 318 | 1.0 | 2.0 | 0.00 | 0.36 | 0.00 | 94 | 1012.4 |
| 20260510050002 | 53 | 319 | 0.0 | 1.0 | 0.00 | 0.36 | 0.00 | 94 | 1012.5 |
| 20260510044503 | 54 | 318 | 0.0 | 3.0 | 0.00 | 0.36 | 0.00 | 94 | 1012.5 |
| 20260510043101 | 54 | 311 | 1.0 | 3.0 | 0.00 | 0.36 | 0.00 | 94 | 1012.5 |
| 20260510041559 | 55 | 315 | 0.0 | 2.0 | 0.00 | 0.36 | 0.00 | 94 | 1012.2 |
| 20260510040101 | 55 | 315 | 0.0 | 3.0 | 0.00 | 0.36 | 0.00 | 94 | 1012.3 |
| 20260510034604 | 54 | 28 | 1.0 | 2.0 | 0.00 | 0.36 | 0.00 | 94 | 1012.4 |
| 20260510033113 | 54 | 28 | 0.0 | 3.0 | 0.00 | 0.36 | 0.00 | 94 | 1012.2 |
| 20260510031557 | 54 | 182 | 1.0 | 3.0 | 0.00 | 0.36 | 0.00 | 94 | 1012.1 |
| 20260510030052 | 54 | 182 | 3.0 | 4.0 | 0.00 | 0.36 | 0.00 | 93 | 1012.1 |
| 20260510024557 | 54 | 203 | 3.0 | 4.0 | 0.00 | 0.36 | 0.00 | 93 | 1012.0 |
| 20260510023048 | 55 | 204 | 1.0 | 3.0 | 0.00 | 0.36 | 0.00 | 93 | 1012.0 |
| 20260510021547 | 55 | 204 | 0.0 | 1.0 | 0.00 | 0.36 | 0.00 | 93 | 1012.0 |
| 20260510020049 | 55 | 204 | 0.0 | 3.0 | 0.00 | 0.36 | 0.36 | 93 | 1012.0 |
| 20260510014545 | 55 | 204 | 1.0 | 3.0 | 0.00 | 0.36 | 0.36 | 93 | 1011.9 |
| 20260510013046 | 55 | 204 | 1.0 | 3.0 | 0.00 | 0.36 | 0.36 | 93 | 1011.7 |
| 20260510011553 | 55 | 204 | 1.0 | 3.0 | 0.00 | 0.36 | 0.36 | 93 | 1011.7 |
| 20260510010044 | 55 | 204 | 1.0 | 2.0 | 0.00 | 0.36 | 0.36 | 92 | 1011.7 |
| 20260510004549 | 55 | 204 | 1.0 | 2.0 | 0.00 | 0.36 | 0.36 | 92 | 1011.9 |
| 20260510003101 | 55 | 204 | 0.0 | 3.0 | 0.00 | 0.36 | 0.36 | 92 | 1012.1 |
| 20260510001543 | 55 | 204 | 1.0 | 3.0 | 0.00 | 0.36 | 0.36 | 91 | 1012.0 |
| 20260510000045 | 55 | 200 | 3.0 | 5.0 | 0.00 | 0.36 | 0.36 | 91 | 1012.2 |
| 20260509234557 | 57 | 26 | 0.0 | 2.0 | 0.00 | 0.36 | 0.36 | 91 | 1012.2 |
| 20260509233042 | 56 | 26 | 0.0 | 1.0 | 0.00 | 0.36 | 0.36 | 90 | 1012.4 |
| 20260509231550 | 57 | 26 | 0.0 | 6.0 | 0.00 | 0.36 | 0.36 | 88 | 1012.4 |
| 20260509230037 | 59 | 184 | 1.0 | 3.0 | 0.00 | 0.36 | 0.36 | 88 | 1012.4 |
| 20260509224536 | 59 | 184 | 2.0 | 4.0 | 0.00 | 0.36 | 0.36 | 86 | 1012.5 |
| 20260509223036 | 60 | 184 | 2.0 | 3.0 | 0.00 | 0.36 | 0.36 | 85 | 1012.5 |
| 20260509221535 | 61 | 173 | 0.0 | 2.0 | 0.00 | 0.36 | 0.36 | 85 | 1012.4 |
| 20260509220034 | 61 | 173 | 0.0 | 3.0 | 0.00 | 0.36 | 0.36 | 85 | 1012.5 |
| 20260509214533 | 60 | 173 | 1.0 | 3.0 | 0.00 | 0.36 | 0.36 | 86 | 1012.4 |
| 20260509213033 | 60 | 189 | 3.0 | 5.0 | 0.00 | 0.36 | 0.36 | 85 | 1012.3 |
| 20260509211538 | 62 | 196 | 2.0 | 4.0 | 0.00 | 0.36 | 0.36 | 82 | 1012.2 |
| 20260509210033 | 63 | 175 | 4.0 | 5.0 | 0.00 | 0.36 | 0.36 | 80 | 1012.2 |
| 20260509204532 | 63 | 136 | 1.0 | 4.0 | 0.00 | 0.36 | 0.36 | 79 | 1012.2 |
| 20260509203035 | 63 | 119 | 2.0 | 4.0 | 0.00 | 0.36 | 0.36 | 79 | 1012.1 |
| 20260509201529 | 63 | 137 | 1.0 | 5.0 | 0.00 | 0.36 | 0.36 | 77 | 1011.9 |
| 20260509200028 | 63 | 218 | 5.0 | 9.0 | 0.00 | 0.36 | 0.36 | 76 | 1011.6 |